Aviation Digital Data Service (ADDS)

Output produced by METARs form (2311 UTC 20 January 2019)
found at http://www.aviationweather.gov/metar/data/
 
METAR text: CYXE 202300Z 17012G18KT 7SM -SN OVC008 M15/M17 A2992 RMK SC8 PCPN VRY LGT SLP181
Conditions at: CYXE (SASKATOON AIRPOR, SK, CA) observed 2300 UTC 20 January 2019
Temperature: -15.0°C ( 5°F)
Dewpoint: -17.0°C ( 1°F) [RH = 85%]
Pressure (altimeter): 29.92 inches Hg (1013.3 mb)
[Sea-level pressure: 1018.1 mb]
Winds: from the S (170 degrees) at 14 MPH (12 knots; 6.2 m/s)
gusting to 21 MPH (18 knots; 9.3 m/s)
Visibility: 7 miles (11 km)
Ceiling: 800 feet AGL
Clouds: overcast cloud deck at 800 feet AGL
Weather: -SN  (light snow)

METAR text: CYXE 202238Z 17014KT 10SM -SN OVC008 M14/M17 A2992 RMK SC8 PCPN VRY LGT SLP181
Conditions at: CYXE (SASKATOON AIRPOR, SK, CA) observed 2238 UTC 20 January 2019
Temperature: -14.0°C ( 7°F)
Dewpoint: -17.0°C ( 1°F) [RH = 78%]
Pressure (altimeter): 29.92 inches Hg (1013.3 mb)
[Sea-level pressure: 1018.1 mb]
Winds: from the S (170 degrees) at 16 MPH (14 knots; 7.2 m/s)
Visibility: 10 or more miles (16+ km)
Ceiling: 800 feet AGL
Clouds: overcast cloud deck at 800 feet AGL
Weather: -SN  (light snow)

METAR text: CYXE 202211Z 17011KT 10SM -SN OVC010 M14/M17 A2993 RMK SC8 SLP186
Conditions at: CYXE (SASKATOON AIRPOR, SK, CA) observed 2211 UTC 20 January 2019
Temperature: -14.0°C ( 7°F)
Dewpoint: -17.0°C ( 1°F) [RH = 78%]
Pressure (altimeter): 29.93 inches Hg (1013.6 mb)
[Sea-level pressure: 1018.6 mb]
Winds: from the S (170 degrees) at 13 MPH (11 knots; 5.7 m/s)
Visibility: 10 or more miles (16+ km)
Ceiling: 1000 feet AGL
Clouds: overcast cloud deck at 1000 feet AGL
Weather: -SN  (light snow)

METAR text: CYXE 202200Z 17009KT 10SM VCSH OVC011 M14/M17 A2994 RMK SC8 SLP188
Conditions at: CYXE (SASKATOON AIRPOR, SK, CA) observed 2200 UTC 20 January 2019
Temperature: -14.0°C ( 7°F)
Dewpoint: -17.0°C ( 1°F) [RH = 78%]
Pressure (altimeter): 29.94 inches Hg (1014.0 mb)
[Sea-level pressure: 1018.8 mb]
Winds: from the S (170 degrees) at 10 MPH (9 knots; 4.6 m/s)
Visibility: 10 or more miles (16+ km)
Ceiling: 1100 feet AGL
Clouds: overcast cloud deck at 1100 feet AGL
Weather: VCSH  (showers in vicinity)

METAR text: CYXE 202100Z 16007KT 15SM OVC009 M14/M17 A2995 RMK SC8 SLP191
Conditions at: CYXE (SASKATOON AIRPOR, SK, CA) observed 2100 UTC 20 January 2019
Temperature: -14.0°C ( 7°F)
Dewpoint: -17.0°C ( 1°F) [RH = 78%]
Pressure (altimeter): 29.95 inches Hg (1014.3 mb)
[Sea-level pressure: 1019.1 mb]
Winds: from the SSE (160 degrees) at 8 MPH (7 knots; 3.6 m/s)
Visibility: 15 miles (24 km)
Ceiling: 900 feet AGL
Clouds: overcast cloud deck at 900 feet AGL
Weather: no significant weather observed at this time

METAR text: CYXE 202045Z 17009KT 15SM OVC009 M15/M18 A2995 RMK SC8 SLP192
Conditions at: CYXE (SASKATOON AIRPOR, SK, CA) observed 2045 UTC 20 January 2019
Temperature: -15.0°C ( 5°F)
Dewpoint: -18.0°C (-0°F) [RH = 78%]
Pressure (altimeter): 29.95 inches Hg (1014.3 mb)
[Sea-level pressure: 1019.2 mb]
Winds: from the S (170 degrees) at 10 MPH (9 knots; 4.6 m/s)
Visibility: 15 miles (24 km)
Ceiling: 900 feet AGL
Clouds: overcast cloud deck at 900 feet AGL
Weather: no significant weather observed at this time

METAR text: CYXE 202000Z 16017KT 12SM -SN OVC012 M15/M18 A2998 RMK SC8 PRESFR SLP202
Conditions at: CYXE (SASKATOON AIRPOR, SK, CA) observed 2000 UTC 20 January 2019
Temperature: -15.0°C ( 5°F)
Dewpoint: -18.0°C (-0°F) [RH = 78%]
Pressure (altimeter): 29.98 inches Hg (1015.3 mb)
[Sea-level pressure: 1020.2 mb]
Winds: from the SSE (160 degrees) at 20 MPH (17 knots; 8.7 m/s)
Visibility: 12 miles (19 km)
Ceiling: 1200 feet AGL
Clouds: overcast cloud deck at 1200 feet AGL
Weather: -SN  (light snow)

METAR text: CYXE 201900Z 16010KT 12SM -SN OVC014 M16/M19 A3002 RMK SC8 SLP217
Conditions at: CYXE (SASKATOON AIRPOR, SK, CA) observed 1900 UTC 20 January 2019
Temperature: -16.0°C ( 3°F)
Dewpoint: -19.0°C (-2°F) [RH = 78%]
Pressure (altimeter): 30.02 inches Hg (1016.7 mb)
[Sea-level pressure: 1021.7 mb]
Winds: from the SSE (160 degrees) at 12 MPH (10 knots; 5.1 m/s)
Visibility: 12 miles (19 km)
Ceiling: 1400 feet AGL
Clouds: overcast cloud deck at 1400 feet AGL
Weather: -SN  (light snow)

METAR text: CYXE 201846Z 17013KT 12SM -SN OVC014 M16/M19 A3002 RMK SC8 PRESFR SLP217
Conditions at: CYXE (SASKATOON AIRPOR, SK, CA) observed 1846 UTC 20 January 2019
Temperature: -16.0°C ( 3°F)
Dewpoint: -19.0°C (-2°F) [RH = 78%]
Pressure (altimeter): 30.02 inches Hg (1016.7 mb)
[Sea-level pressure: 1021.7 mb]
Winds: from the S (170 degrees) at 15 MPH (13 knots; 6.7 m/s)
Visibility: 12 miles (19 km)
Ceiling: 1400 feet AGL
Clouds: overcast cloud deck at 1400 feet AGL
Weather: -SN  (light snow)

METAR text: CYXE 201800Z 17014KT 15SM OVC014 M17/M20 A3006 RMK SC8 SLP231
Conditions at: CYXE (SASKATOON AIRPOR, SK, CA) observed 1800 UTC 20 January 2019
Temperature: -17.0°C ( 1°F)
Dewpoint: -20.0°C (-4°F) [RH = 77%]
Pressure (altimeter): 30.06 inches Hg (1018.0 mb)
[Sea-level pressure: 1023.1 mb]
Winds: from the S (170 degrees) at 16 MPH (14 knots; 7.2 m/s)
Visibility: 15 miles (24 km)
Ceiling: 1400 feet AGL
Clouds: overcast cloud deck at 1400 feet AGL
Weather: no significant weather observed at this time

METAR text: CYXE 201700Z 17013KT 12SM -SN OVC012 M17/M20 A3006 RMK SC8 SLP233
Conditions at: CYXE (SASKATOON AIRPOR, SK, CA) observed 1700 UTC 20 January 2019
Temperature: -17.0°C ( 1°F)
Dewpoint: -20.0°C (-4°F) [RH = 77%]
Pressure (altimeter): 30.06 inches Hg (1018.0 mb)
[Sea-level pressure: 1023.3 mb]
Winds: from the S (170 degrees) at 15 MPH (13 knots; 6.7 m/s)
Visibility: 12 miles (19 km)
Ceiling: 1200 feet AGL
Clouds: overcast cloud deck at 1200 feet AGL
Weather: -SN  (light snow)

METAR text: CYXE 201617Z 16013KT 12SM -SN OVC012 M17/M20 A3007 RMK SC8 SLP236
Conditions at: CYXE (SASKATOON AIRPOR, SK, CA) observed 1617 UTC 20 January 2019
Temperature: -17.0°C ( 1°F)
Dewpoint: -20.0°C (-4°F) [RH = 77%]
Pressure (altimeter): 30.07 inches Hg (1018.4 mb)
[Sea-level pressure: 1023.6 mb]
Winds: from the SSE (160 degrees) at 15 MPH (13 knots; 6.7 m/s)
Visibility: 12 miles (19 km)
Ceiling: 1200 feet AGL
Clouds: overcast cloud deck at 1200 feet AGL
Weather: -SN  (light snow)

METAR text: CYXE 201600Z 13007KT 15SM OVC011 M17/M20 A3007 RMK SC8 SLP235
Conditions at: CYXE (SASKATOON AIRPOR, SK, CA) observed 1600 UTC 20 January 2019
Temperature: -17.0°C ( 1°F)
Dewpoint: -20.0°C (-4°F) [RH = 77%]
Pressure (altimeter): 30.07 inches Hg (1018.4 mb)
[Sea-level pressure: 1023.5 mb]
Winds: from the SE (130 degrees) at 8 MPH (7 knots; 3.6 m/s)
Visibility: 15 miles (24 km)
Ceiling: 1100 feet AGL
Clouds: overcast cloud deck at 1100 feet AGL
Weather: no significant weather observed at this time

METAR text: CYXE 201500Z 13009KT 15SM BKN012 OVC030 M18/M21 A3009 RMK ST6SC2 SLP243
Conditions at: CYXE (SASKATOON AIRPOR, SK, CA) observed 1500 UTC 20 January 2019
Temperature: -18.0°C (-0°F)
Dewpoint: -21.0°C (-6°F) [RH = 77%]
Pressure (altimeter): 30.09 inches Hg (1019.0 mb)
[Sea-level pressure: 1024.3 mb]
Winds: from the SE (130 degrees) at 10 MPH (9 knots; 4.6 m/s)
Visibility: 15 miles (24 km)
Ceiling: 1200 feet AGL
Clouds: broken clouds at 1200 feet AGL
overcast cloud deck at 3000 feet AGL
Weather: no significant weather observed at this time

METAR text: CYXE 201400Z 12008KT 15SM BKN015 OVC030 M19/M21 A3008 RMK SC5SC3 SLP241
Conditions at: CYXE (SASKATOON AIRPOR, SK, CA) observed 1400 UTC 20 January 2019
Temperature: -19.0°C (-2°F)
Dewpoint: -21.0°C (-6°F) [RH = 84%]
Pressure (altimeter): 30.08 inches Hg (1018.7 mb)
[Sea-level pressure: 1024.1 mb]
Winds: from the ESE (120 degrees) at 9 MPH (8 knots; 4.1 m/s)
Visibility: 15 miles (24 km)
Ceiling: 1500 feet AGL
Clouds: broken clouds at 1500 feet AGL
overcast cloud deck at 3000 feet AGL
Weather: no significant weather observed at this time

METAR text: CYXE 201300Z 12010KT 15SM BKN015 OVC030 M18/M21 A3011 RMK SC6SC2 SLP250
Conditions at: CYXE (SASKATOON AIRPOR, SK, CA) observed 1300 UTC 20 January 2019
Temperature: -18.0°C (-0°F)
Dewpoint: -21.0°C (-6°F) [RH = 77%]
Pressure (altimeter): 30.11 inches Hg (1019.7 mb)
[Sea-level pressure: 1025.0 mb]
Winds: from the ESE (120 degrees) at 12 MPH (10 knots; 5.1 m/s)
Visibility: 15 miles (24 km)
Ceiling: 1500 feet AGL
Clouds: broken clouds at 1500 feet AGL
overcast cloud deck at 3000 feet AGL
Weather: no significant weather observed at this time

METAR text: CYXE 201248Z 14011KT 15SM DRSN BKN016 M18/M22 A3012 RMK SC7 SLP253
Conditions at: CYXE (SASKATOON AIRPOR, SK, CA) observed 1248 UTC 20 January 2019
Temperature: -18.0°C (-0°F)
Dewpoint: -22.0°C (-8°F) [RH = 71%]
Pressure (altimeter): 30.12 inches Hg (1020.1 mb)
[Sea-level pressure: 1025.3 mb]
Winds: from the SE (140 degrees) at 13 MPH (11 knots; 5.7 m/s)
Visibility: 15 miles (24 km)
Ceiling: 1600 feet AGL
Clouds: broken clouds at 1600 feet AGL
Weather: DRSN  (low drifting snow)

METAR text: CYXE 201200Z 13012KT 15SM -SN DRSN BKN018 M18/M21 A3011 RMK SC7 SLP250
Conditions at: CYXE (SASKATOON AIRPOR, SK, CA) observed 1200 UTC 20 January 2019
Temperature: -18.0°C (-0°F)
Dewpoint: -21.0°C (-6°F) [RH = 77%]
Pressure (altimeter): 30.11 inches Hg (1019.7 mb)
[Sea-level pressure: 1025.0 mb]
Winds: from the SE (130 degrees) at 14 MPH (12 knots; 6.2 m/s)
Visibility: 15 miles (24 km)
Ceiling: 1800 feet AGL
Clouds: broken clouds at 1800 feet AGL
Weather: -SN DRSN  (light snow, low drifting snow)

METAR text: CYXE 201100Z CCA 13013KT 15SM BKN025 M18/M21 A3010 RMK SC6 SLP248
Conditions at: CYXE (SASKATOON AIRPOR, SK, CA) observed 1100 UTC 20 January 2019
Temperature: -18.0°C (-0°F)
Dewpoint: -21.0°C (-6°F) [RH = 77%]
Pressure (altimeter): 30.10 inches Hg (1019.4 mb)
[Sea-level pressure: 1024.8 mb]
Winds: from the SE (130 degrees) at 15 MPH (13 knots; 6.7 m/s)
Visibility: 15 miles (24 km)
Ceiling: 2500 feet AGL
Clouds: broken clouds at 2500 feet AGL
Weather: no significant weather observed at this time

METAR text: CYXE 201000Z 13014KT 15SM -SN OVC022 M18/M21 A3012 RMK SC8 SLP252
Conditions at: CYXE (SASKATOON AIRPOR, SK, CA) observed 1000 UTC 20 January 2019
Temperature: -18.0°C (-0°F)
Dewpoint: -21.0°C (-6°F) [RH = 77%]
Pressure (altimeter): 30.12 inches Hg (1020.1 mb)
[Sea-level pressure: 1025.2 mb]
Winds: from the SE (130 degrees) at 16 MPH (14 knots; 7.2 m/s)
Visibility: 15 miles (24 km)
Ceiling: 2200 feet AGL
Clouds: overcast cloud deck at 2200 feet AGL
Weather: -SN  (light snow)

METAR text: CYXE 200900Z 11014KT 8SM -SN OVC025 M19/M22 A3013 RMK SC8 SLP257
Conditions at: CYXE (SASKATOON AIRPOR, SK, CA) observed 0900 UTC 20 January 2019
Temperature: -19.0°C (-2°F)
Dewpoint: -22.0°C (-8°F) [RH = 77%]
Pressure (altimeter): 30.13 inches Hg (1020.4 mb)
[Sea-level pressure: 1025.7 mb]
Winds: from the ESE (110 degrees) at 16 MPH (14 knots; 7.2 m/s)
Visibility: 8 miles (13 km)
Ceiling: 2500 feet AGL
Clouds: overcast cloud deck at 2500 feet AGL
Weather: -SN  (light snow)

METAR text: CYXE 200800Z 11011KT 10SM -SN OVC027 M19/M21 A3013 RMK SC8 SLP256
Conditions at: CYXE (SASKATOON AIRPOR, SK, CA) observed 0800 UTC 20 January 2019
Temperature: -19.0°C (-2°F)
Dewpoint: -21.0°C (-6°F) [RH = 84%]
Pressure (altimeter): 30.13 inches Hg (1020.4 mb)
[Sea-level pressure: 1025.6 mb]
Winds: from the ESE (110 degrees) at 13 MPH (11 knots; 5.7 m/s)
Visibility: 10 or more miles (16+ km)
Ceiling: 2700 feet AGL
Clouds: overcast cloud deck at 2700 feet AGL
Weather: -SN  (light snow)

METAR text: CYXE 200700Z 11013G19KT 10SM -SN OVC032 M19/M22 A3012 RMK SC8 SLP254
Conditions at: CYXE (SASKATOON AIRPOR, SK, CA) observed 0700 UTC 20 January 2019
Temperature: -19.0°C (-2°F)
Dewpoint: -22.0°C (-8°F) [RH = 77%]
Pressure (altimeter): 30.12 inches Hg (1020.1 mb)
[Sea-level pressure: 1025.4 mb]
Winds: from the ESE (110 degrees) at 15 MPH (13 knots; 6.7 m/s)
gusting to 22 MPH (19 knots; 9.8 m/s)
Visibility: 10 or more miles (16+ km)
Ceiling: 3200 feet AGL
Clouds: overcast cloud deck at 3200 feet AGL
Weather: -SN  (light snow)

METAR text: CYXE 200638Z 12012KT 15SM -SN BKN030 M19/M22 A3011 RMK SC6 SLP254
Conditions at: CYXE (SASKATOON AIRPOR, SK, CA) observed 0638 UTC 20 January 2019
Temperature: -19.0°C (-2°F)
Dewpoint: -22.0°C (-8°F) [RH = 77%]
Pressure (altimeter): 30.11 inches Hg (1019.7 mb)
[Sea-level pressure: 1025.4 mb]
Winds: from the ESE (120 degrees) at 14 MPH (12 knots; 6.2 m/s)
Visibility: 15 miles (24 km)
Ceiling: 3000 feet AGL
Clouds: broken clouds at 3000 feet AGL
Weather: -SN  (light snow)

METAR text: CYXE 200600Z 11015KT 15SM DRSN FEW030 M19/M22 A3010 RMK SC2 SLP250
Conditions at: CYXE (SASKATOON AIRPOR, SK, CA) observed 0600 UTC 20 January 2019
Temperature: -19.0°C (-2°F)
Dewpoint: -22.0°C (-8°F) [RH = 77%]
Pressure (altimeter): 30.10 inches Hg (1019.4 mb)
[Sea-level pressure: 1025.0 mb]
Winds: from the ESE (110 degrees) at 17 MPH (15 knots; 7.7 m/s)
Visibility: 15 miles (24 km)
Ceiling: at least 12,000 feet AGL
Clouds: few clouds at 3000 feet AGL
Weather: DRSN  (low drifting snow)

METAR text: CYXE 200500Z 10018KT 4SM -SN DRSN OVC030 M19/M22 A3008 RMK SN5SC3 SLP245
Conditions at: CYXE (SASKATOON AIRPOR, SK, CA) observed 0500 UTC 20 January 2019
Temperature: -19.0°C (-2°F)
Dewpoint: -22.0°C (-8°F) [RH = 77%]
Pressure (altimeter): 30.08 inches Hg (1018.7 mb)
[Sea-level pressure: 1024.5 mb]
Winds: from the E (100 degrees) at 21 MPH (18 knots; 9.3 m/s)
Visibility: 4 miles ( 6 km)
Ceiling: 3000 feet AGL
Clouds: overcast cloud deck at 3000 feet AGL
Weather: -SN DRSN  (light snow, low drifting snow)

METAR text: CYXE 200443Z 09016G21KT 3SM -SN DRSN VV014 M19/M22 A3009 RMK SN8 SLP247
Conditions at: CYXE (SASKATOON AIRPOR, SK, CA) observed 0443 UTC 20 January 2019
Temperature: -19.0°C (-2°F)
Dewpoint: -22.0°C (-8°F) [RH = 77%]
Pressure (altimeter): 30.09 inches Hg (1019.0 mb)
[Sea-level pressure: 1024.7 mb]
Winds: from the E (90 degrees) at 18 MPH (16 knots; 8.2 m/s)
gusting to 24 MPH (21 knots; 10.8 m/s)
Visibility: 3 miles ( 5 km)
Ceiling: indefinite ceiling with vertical visibility of 1400 feet AGL
Clouds: obscured sky
Weather: -SN DRSN  (light snow, low drifting snow)

METAR text: CYXE 200400Z 09018G23KT 2SM -SN DRSN VV014 M18/M21 A3010 RMK SN8 SLP250
Conditions at: CYXE (SASKATOON AIRPOR, SK, CA) observed 0400 UTC 20 January 2019
Temperature: -18.0°C (-0°F)
Dewpoint: -21.0°C (-6°F) [RH = 77%]
Pressure (altimeter): 30.10 inches Hg (1019.4 mb)
[Sea-level pressure: 1025.0 mb]
Winds: from the E (90 degrees) at 21 MPH (18 knots; 9.3 m/s)
gusting to 26 MPH (23 knots; 11.8 m/s)
Visibility: 2.00 miles (3.22 km)
Ceiling: indefinite ceiling with vertical visibility of 1400 feet AGL
Clouds: obscured sky
Weather: -SN DRSN  (light snow, low drifting snow)

METAR text: CYXE 200300Z 09013KT 2SM -SN DRSN VV014 M19/M22 A3012 RMK SN8 SLP260
Conditions at: CYXE (SASKATOON AIRPOR, SK, CA) observed 0300 UTC 20 January 2019
Temperature: -19.0°C (-2°F)
Dewpoint: -22.0°C (-8°F) [RH = 77%]
Pressure (altimeter): 30.12 inches Hg (1020.1 mb)
[Sea-level pressure: 1026.0 mb]
Winds: from the E (90 degrees) at 15 MPH (13 knots; 6.7 m/s)
Visibility: 2.00 miles (3.22 km)
Ceiling: indefinite ceiling with vertical visibility of 1400 feet AGL
Clouds: obscured sky
Weather: -SN DRSN  (light snow, low drifting snow)

METAR text: CYXE 200216Z 09014KT 2SM -SN DRSN VV012 M19/M22 A3012 RMK SN8 SLP261
Conditions at: CYXE (SASKATOON AIRPOR, SK, CA) observed 0216 UTC 20 January 2019
Temperature: -19.0°C (-2°F)
Dewpoint: -22.0°C (-8°F) [RH = 77%]
Pressure (altimeter): 30.12 inches Hg (1020.1 mb)
[Sea-level pressure: 1026.1 mb]
Winds: from the E (90 degrees) at 16 MPH (14 knots; 7.2 m/s)
Visibility: 2.00 miles (3.22 km)
Ceiling: indefinite ceiling with vertical visibility of 1200 feet AGL
Clouds: obscured sky
Weather: -SN DRSN  (light snow, low drifting snow)

METAR text: CYXE 200200Z 09014KT 1 1/4SM -SN DRSN VV011 M19/M21 A3012 RMK SN8 SLP262
Conditions at: CYXE (SASKATOON AIRPOR, SK, CA) observed 0200 UTC 20 January 2019
Temperature: -19.0°C (-2°F)
Dewpoint: -21.0°C (-6°F) [RH = 84%]
Pressure (altimeter): 30.12 inches Hg (1020.1 mb)
[Sea-level pressure: 1026.2 mb]
Winds: from the E (90 degrees) at 16 MPH (14 knots; 7.2 m/s)
Visibility: 1.25 miles (2.01 km)
Ceiling: indefinite ceiling with vertical visibility of 1100 feet AGL
Clouds: obscured sky
Weather: -SN DRSN  (light snow, low drifting snow)

METAR text: CYXE 200136Z 09015KT 3/4SM R09/P6000FT/U -SN DRSN VV010 M18/M21 A3013 RMK SN8 SLP263
Conditions at: CYXE (SASKATOON AIRPOR, SK, CA) observed 0136 UTC 20 January 2019
Temperature: -18.0°C (-0°F)
Dewpoint: -21.0°C (-6°F) [RH = 77%]
Pressure (altimeter): 30.13 inches Hg (1020.4 mb)
[Sea-level pressure: 1026.3 mb]
Winds: from the E (90 degrees) at 17 MPH (15 knots; 7.7 m/s)
Visibility: 0.75 miles (1.21 km)
Ceiling: indefinite ceiling with vertical visibility of 1000 feet AGL
Clouds: obscured sky
Weather: DRSN -SN  (low drifting snow, light snow)

METAR text: CYXE 200116Z 08015G21KT 1/2SM R09/P6000FT/D SN DRSN VV010 M18/M21 A3013 RMK SN8 SLP264
Conditions at: CYXE (SASKATOON AIRPOR, SK, CA) observed 0116 UTC 20 January 2019
Temperature: -18.0°C (-0°F)
Dewpoint: -21.0°C (-6°F) [RH = 77%]
Pressure (altimeter): 30.13 inches Hg (1020.4 mb)
[Sea-level pressure: 1026.4 mb]
Winds: from the E (80 degrees) at 17 MPH (15 knots; 7.7 m/s)
gusting to 24 MPH (21 knots; 10.8 m/s)
Visibility: 0.50 miles (0.80 km)
Ceiling: indefinite ceiling with vertical visibility of 1000 feet AGL
Clouds: obscured sky
Weather: DRSN SN  (low drifting snow, moderate snow)

METAR text: CYXE 200100Z 09012KT 3/4SM R09/P6000FT/D -SN DRSN VV010 M18/M21 A3014 RMK SN8 SLP266
Conditions at: CYXE (SASKATOON AIRPOR, SK, CA) observed 0100 UTC 20 January 2019
Temperature: -18.0°C (-0°F)
Dewpoint: -21.0°C (-6°F) [RH = 77%]
Pressure (altimeter): 30.14 inches Hg (1020.7 mb)
[Sea-level pressure: 1026.6 mb]
Winds: from the E (90 degrees) at 14 MPH (12 knots; 6.2 m/s)
Visibility: 0.75 miles (1.21 km)
Ceiling: indefinite ceiling with vertical visibility of 1000 feet AGL
Clouds: obscured sky
Weather: DRSN -SN  (low drifting snow, light snow)

METAR text: CYXE 200029Z 10013KT 3/4SM R09/P6000FT/D -SN DRSN VV010 M18/M21 A3014 RMK SN8 SLP268
Conditions at: CYXE (SASKATOON AIRPOR, SK, CA) observed 0029 UTC 20 January 2019
Temperature: -18.0°C (-0°F)
Dewpoint: -21.0°C (-6°F) [RH = 77%]
Pressure (altimeter): 30.14 inches Hg (1020.7 mb)
[Sea-level pressure: 1026.8 mb]
Winds: from the E (100 degrees) at 15 MPH (13 knots; 6.7 m/s)
Visibility: 0.75 miles (1.21 km)
Ceiling: indefinite ceiling with vertical visibility of 1000 feet AGL
Clouds: obscured sky
Weather: DRSN -SN  (low drifting snow, light snow)

METAR text: CYXE 200014Z 08011KT 1SM R09/P6000FT/D -SN DRSN VV010 M18/M21 A3014 RMK SN8 SLP267
Conditions at: CYXE (SASKATOON AIRPOR, SK, CA) observed 0014 UTC 20 January 2019
Temperature: -18.0°C (-0°F)
Dewpoint: -21.0°C (-6°F) [RH = 77%]
Pressure (altimeter): 30.14 inches Hg (1020.7 mb)
[Sea-level pressure: 1026.7 mb]
Winds: from the E (80 degrees) at 13 MPH (11 knots; 5.7 m/s)
Visibility: 1.00 miles (1.61 km)
Ceiling: indefinite ceiling with vertical visibility of 1000 feet AGL
Clouds: obscured sky
Weather: DRSN -SN  (low drifting snow, light snow)

METAR text: CYXE 200000Z 10013KT 2SM -SN DRSN VV020 M18/M22 A3014 RMK SN8 SLP266
Conditions at: CYXE (SASKATOON AIRPOR, SK, CA) observed 0000 UTC 20 January 2019
Temperature: -18.0°C (-0°F)
Dewpoint: -22.0°C (-8°F) [RH = 71%]
Pressure (altimeter): 30.14 inches Hg (1020.7 mb)
[Sea-level pressure: 1026.6 mb]
Winds: from the E (100 degrees) at 15 MPH (13 knots; 6.7 m/s)
Visibility: 2.00 miles (3.22 km)
Ceiling: indefinite ceiling with vertical visibility of 2000 feet AGL
Clouds: obscured sky
Weather: -SN DRSN  (light snow, low drifting snow)

METAR text: CYXE 192354Z 10013G18KT 2SM -SN DRSN VV020 M18/M22 A3013 RMK SN8 SLP264
Conditions at: CYXE (SASKATOON AIRPOR, SK, CA) observed 2354 UTC 19 January 2019
Temperature: -18.0°C (-0°F)
Dewpoint: -22.0°C (-8°F) [RH = 71%]
Pressure (altimeter): 30.13 inches Hg (1020.4 mb)
[Sea-level pressure: 1026.4 mb]
Winds: from the E (100 degrees) at 15 MPH (13 knots; 6.7 m/s)
gusting to 21 MPH (18 knots; 9.3 m/s)
Visibility: 2.00 miles (3.22 km)
Ceiling: indefinite ceiling with vertical visibility of 2000 feet AGL
Clouds: obscured sky
Weather: -SN DRSN  (light snow, low drifting snow)

METAR text: CYXE 192338Z 10014KT 3SM -SN DRSN VV040 M18/M23 A3013 RMK SN8 SLP265
Conditions at: CYXE (SASKATOON AIRPOR, SK, CA) observed 2338 UTC 19 January 2019
Temperature: -18.0°C (-0°F)
Dewpoint: -23.0°C (-9°F) [RH = 65%]
Pressure (altimeter): 30.13 inches Hg (1020.4 mb)
[Sea-level pressure: 1026.5 mb]
Winds: from the E (100 degrees) at 16 MPH (14 knots; 7.2 m/s)
Visibility: 3 miles ( 5 km)
Ceiling: indefinite ceiling with vertical visibility of 4000 feet AGL
Clouds: obscured sky
Weather: -SN DRSN  (light snow, low drifting snow)

METAR text: CYXE 192300Z 10015KT 15SM OVC050 M18/M23 A3014 RMK SC8 SLP267
Conditions at: CYXE (SASKATOON AIRPOR, SK, CA) observed 2300 UTC 19 January 2019
Temperature: -18.0°C (-0°F)
Dewpoint: -23.0°C (-9°F) [RH = 65%]
Pressure (altimeter): 30.14 inches Hg (1020.7 mb)
[Sea-level pressure: 1026.7 mb]
Winds: from the E (100 degrees) at 17 MPH (15 knots; 7.7 m/s)
Visibility: 15 miles (24 km)
Ceiling: 5000 feet AGL
Clouds: overcast cloud deck at 5000 feet AGL
Weather: no significant weather observed at this time

METAR text: CYXE 192200Z 10016KT 15SM OVC070 M18/M23 A3015 RMK AS8 SLP272
Conditions at: CYXE (SASKATOON AIRPOR, SK, CA) observed 2200 UTC 19 January 2019
Temperature: -18.0°C (-0°F)
Dewpoint: -23.0°C (-9°F) [RH = 65%]
Pressure (altimeter): 30.15 inches Hg (1021.1 mb)
[Sea-level pressure: 1027.2 mb]
Winds: from the E (100 degrees) at 18 MPH (16 knots; 8.2 m/s)
Visibility: 15 miles (24 km)
Ceiling: 7000 feet AGL
Clouds: overcast cloud deck at 7000 feet AGL
Weather: no significant weather observed at this time

METAR text: CYXE 192100Z 11015G21KT 15SM OVC070 M18/M23 A3019 RMK AS8 SLP282
Conditions at: CYXE (SASKATOON AIRPOR, SK, CA) observed 2100 UTC 19 January 2019
Temperature: -18.0°C (-0°F)
Dewpoint: -23.0°C (-9°F) [RH = 65%]
Pressure (altimeter): 30.19 inches Hg (1022.4 mb)
[Sea-level pressure: 1028.2 mb]
Winds: from the ESE (110 degrees) at 17 MPH (15 knots; 7.7 m/s)
gusting to 24 MPH (21 knots; 10.8 m/s)
Visibility: 15 miles (24 km)
Ceiling: 7000 feet AGL
Clouds: overcast cloud deck at 7000 feet AGL
Weather: no significant weather observed at this time

METAR text: CYXE 192000Z 09015KT 15SM OVC080 M19/M24 A3021 RMK AC8 SLP289
Conditions at: CYXE (SASKATOON AIRPOR, SK, CA) observed 2000 UTC 19 January 2019
Temperature: -19.0°C (-2°F)
Dewpoint: -24.0°C (-11°F) [RH = 65%]
Pressure (altimeter): 30.21 inches Hg (1023.1 mb)
[Sea-level pressure: 1028.9 mb]
Winds: from the E (90 degrees) at 17 MPH (15 knots; 7.7 m/s)
Visibility: 15 miles (24 km)
Ceiling: 8000 feet AGL
Clouds: overcast cloud deck at 8000 feet AGL
Weather: no significant weather observed at this time

METAR text: CYXE 191900Z 10012KT 15SM OVC085 M20/M25 A3027 RMK AC8 SLP310
Conditions at: CYXE (SASKATOON AIRPOR, SK, CA) observed 1900 UTC 19 January 2019
Temperature: -20.0°C (-4°F)
Dewpoint: -25.0°C (-13°F) [RH = 64%]
Pressure (altimeter): 30.27 inches Hg (1025.1 mb)
[Sea-level pressure: 1031.0 mb]
Winds: from the E (100 degrees) at 14 MPH (12 knots; 6.2 m/s)
Visibility: 15 miles (24 km)
Ceiling: 8500 feet AGL
Clouds: overcast cloud deck at 8500 feet AGL
Weather: no significant weather observed at this time

METAR text: CYXE 191800Z 10015KT 15SM OVC085 M21/M25 A3028 RMK AC8 SLP315
Conditions at: CYXE (SASKATOON AIRPOR, SK, CA) observed 1800 UTC 19 January 2019
Temperature: -21.0°C (-6°F)
Dewpoint: -25.0°C (-13°F) [RH = 70%]
Pressure (altimeter): 30.28 inches Hg (1025.5 mb)
[Sea-level pressure: 1031.5 mb]
Winds: from the E (100 degrees) at 17 MPH (15 knots; 7.7 m/s)
Visibility: 15 miles (24 km)
Ceiling: 8500 feet AGL
Clouds: overcast cloud deck at 8500 feet AGL
Weather: no significant weather observed at this time

METAR text: CYXE 191700Z 10012KT 15SM FEW120 BKN200 OVC270 M23/M27 A3029 RMK AC1CI4CI3 SLP317
Conditions at: CYXE (SASKATOON AIRPOR, SK, CA) observed 1700 UTC 19 January 2019
Temperature: -23.0°C (-9°F)
Dewpoint: -27.0°C (-17°F) [RH = 70%]
Pressure (altimeter): 30.29 inches Hg (1025.8 mb)
[Sea-level pressure: 1031.7 mb]
Winds: from the E (100 degrees) at 14 MPH (12 knots; 6.2 m/s)
Visibility: 15 miles (24 km)
Ceiling: 20000 feet AGL
Clouds: few clouds at 12000 feet AGL
broken clouds at 20000 feet AGL
overcast cloud deck at 27000 feet AGL
Weather: no significant weather observed at this time

METAR text: CYXE 191600Z 10013KT 15SM FEW120 BKN270 M24/M27 A3029 RMK AC2CI5 SLP320
Conditions at: CYXE (SASKATOON AIRPOR, SK, CA) observed 1600 UTC 19 January 2019
Temperature: -24.0°C (-11°F)
Dewpoint: -27.0°C (-17°F) [RH = 76%]
Pressure (altimeter): 30.29 inches Hg (1025.8 mb)
[Sea-level pressure: 1032.0 mb]
Winds: from the E (100 degrees) at 15 MPH (13 knots; 6.7 m/s)
Visibility: 15 miles (24 km)
Ceiling: 27000 feet AGL
Clouds: few clouds at 12000 feet AGL
broken clouds at 27000 feet AGL
Weather: no significant weather observed at this time

METAR text: CYXE 191500Z 08006KT 15SM BKN270 M28/M31 A3031 RMK CI5 SLP330
Conditions at: CYXE (SASKATOON AIRPOR, SK, CA) observed 1500 UTC 19 January 2019
Temperature: -28.0°C (-18°F)
Dewpoint: -31.0°C (-24°F) [RH = 75%]
Pressure (altimeter): 30.31 inches Hg (1026.5 mb)
[Sea-level pressure: 1033.0 mb]
Winds: from the E (80 degrees) at 7 MPH (6 knots; 3.1 m/s)
Visibility: 15 miles (24 km)
Ceiling: 27000 feet AGL
Clouds: broken clouds at 27000 feet AGL
Weather: no significant weather observed at this time

METAR text: CYXE 191400Z 06009KT 15SM FEW110 M28/M31 A3033 RMK AC2 PRESFR SLP335
Conditions at: CYXE (SASKATOON AIRPOR, SK, CA) observed 1400 UTC 19 January 2019
Temperature: -28.0°C (-18°F)
Dewpoint: -31.0°C (-24°F) [RH = 75%]
Pressure (altimeter): 30.33 inches Hg (1027.2 mb)
[Sea-level pressure: 1033.5 mb]
Winds: from the ENE (60 degrees) at 10 MPH (9 knots; 4.6 m/s)
Visibility: 15 miles (24 km)
Ceiling: at least 12,000 feet AGL
Clouds: few clouds at 11000 feet AGL
Weather: no significant weather observed at this time

METAR text: CYXE 191300Z 06007KT 15SM FEW120 M27/M30 A3033 RMK AC2 SLP335
Conditions at: CYXE (SASKATOON AIRPOR, SK, CA) observed 1300 UTC 19 January 2019
Temperature: -27.0°C (-17°F)
Dewpoint: -30.0°C (-22°F) [RH = 76%]
Pressure (altimeter): 30.33 inches Hg (1027.2 mb)
[Sea-level pressure: 1033.5 mb]
Winds: from the ENE (60 degrees) at 8 MPH (7 knots; 3.6 m/s)
Visibility: 15 miles (24 km)
Ceiling: at least 12,000 feet AGL
Clouds: few clouds at 12000 feet AGL
Weather: no significant weather observed at this time

METAR text: CYXE 191200Z 06006KT 15SM FEW120 M29/M31 A3034 RMK AC2 SLP342
Conditions at: CYXE (SASKATOON AIRPOR, SK, CA) observed 1200 UTC 19 January 2019
Temperature: -29.0°C (-20°F)
Dewpoint: -31.0°C (-24°F) [RH = 83%]
Pressure (altimeter): 30.34 inches Hg (1027.5 mb)
[Sea-level pressure: 1034.2 mb]
Winds: from the ENE (60 degrees) at 7 MPH (6 knots; 3.1 m/s)
Visibility: 15 miles (24 km)
Ceiling: at least 12,000 feet AGL
Clouds: few clouds at 12000 feet AGL
Weather: no significant weather observed at this time

Forecast for: AMD
Text: TAF AMD CYXE 202105Z 2021/2118 17012KT P6SM OVC012
Forecast period: 2100 UTC 20 January 2019 to 0000 UTC 21 January 2019
Forecast type: FROM: standard forecast or significant change
Winds: from the S (170 degrees) at 14 MPH (12 knots; 6.2 m/s)
Visibility: 6 or more miles 10+ km)
Ceiling: 1200 feet AGL
Clouds: overcast cloud deck at 1200 feet AGL
Weather: no significant weather forecast for this period
Text: TEMPO 2021/2024 P6SM -SN OVC009
Forecast period: 2100 UTC 20 January 2019 to 0000 UTC 21 January 2019
Forecast type: TEMPORARY: The following changes expected for less than half the time period
Visibility: 6 or more miles 10+ km)
Ceiling: 900 feet AGL
Clouds: overcast cloud deck at 900 feet AGL
Weather: -SN  (light snow)
Text: FM210000 18008KT P6SM OVC008
Forecast period: 0000 to 0400 UTC 21 January 2019
Forecast type: FROM: standard forecast or significant change
Winds: from the S (180 degrees) at 9 MPH (8 knots; 4.1 m/s)
Visibility: 6 or more miles 10+ km)
Ceiling: 800 feet AGL
Clouds: overcast cloud deck at 800 feet AGL
Weather: no significant weather forecast for this period
Text: TEMPO 2100/2104 2SM BR OVC005
Forecast period: 0000 to 0400 UTC 21 January 2019
Forecast type: TEMPORARY: The following changes expected for less than half the time period
Visibility: 2.00 miles (3.22 km)
Ceiling: 500 feet AGL
Clouds: overcast cloud deck at 500 feet AGL
Weather: BR  (mist)
Text: FM210400 18007KT 2SM BR OVC006
Forecast period: 0400 to 1800 UTC 21 January 2019
Forecast type: FROM: standard forecast or significant change
Winds: from the S (180 degrees) at 8 MPH (7 knots; 3.6 m/s)
Visibility: 2.00 miles (3.22 km)
Ceiling: 600 feet AGL
Clouds: overcast cloud deck at 600 feet AGL
Weather: BR  (mist)
Text: TEMPO 2104/2118 1/2SM FZFG VV002 RMK NXT FCST BY 210000Z
Forecast period: 0400 to 1800 UTC 21 January 2019
Forecast type: TEMPORARY: The following changes expected for less than half the time period
Visibility: 0.50 miles (0.80 km)
Ceiling: indefinite ceiling with vertical visibility of 200 feet AGL
Clouds: obscured sky
Weather: FZFG  (freezing fog)